Wyola, Montana
Current Conditions -  °F | °C
As of 1:53 PM on Sunday 21 Dec 2014 (Local Time) from KSHR Reporting Station
Few Clouds Few Clouds  
Wind Chill: 36°   Ceiling: Unl
Heat Index: 44°   Visibility: 10mi
Dew Point: 28°   Wind: 18mph
Humidity: 53%   Direction: 340°NNW
Pressure: 29.4"   Gusts: 29mph
Location:  45.13°N, 107.39°W
Report Text: KSHR 212053Z AUTO 34016G25KT 10SM FEW110 07/M02 A2940 RMK AO2 PK WND 32027/2040 SLP977 60000 T00671022 55020
Loading
Personal Weather Stations






























Interactive Weather Map New forecast layout! Learn more

10-Day Weather Forecast

Advertisements
Track Severe Weather on mobile